createdAt,value
2023-03-24T00:00:31.843Z,7.60
2023-03-24T00:03:49.074Z,7.40
2023-03-24T00:06:28.001Z,7.10
2023-03-24T00:09:26.924Z,7.40
2023-03-24T00:12:21.472Z,8.10
2023-03-24T00:15:11.106Z,7.90
2023-03-24T00:18:41.826Z,6.90
2023-03-24T00:21:32.170Z,6.60
2023-03-24T00:24:34.728Z,6.70
2023-03-24T00:28:12.800Z,6.20
2023-03-24T00:31:02.234Z,6.50
2023-03-24T00:34:10.977Z,5.90
2023-03-24T00:37:06.802Z,5.40
2023-03-24T00:40:16.691Z,6.00
2023-03-24T00:43:26.338Z,5.80
2023-03-24T00:46:36.576Z,6.40
2023-03-24T00:50:20.043Z,6.10
2023-03-24T00:53:29.316Z,5.60
2023-03-24T00:56:53.246Z,5.60
2023-03-24T00:59:56.268Z,5.40
2023-03-24T01:03:16.891Z,5.90
2023-03-24T01:06:13.463Z,5.80
2023-03-24T01:09:46.487Z,5.40
2023-03-24T01:12:40.687Z,5.20
2023-03-24T01:15:53.207Z,5.70
2023-03-24T01:19:22.028Z,5.40
2023-03-24T01:22:31.630Z,5.50
2023-03-24T01:25:20.430Z,5.30
2023-03-24T01:29:19.310Z,4.80
2023-03-24T01:31:57.465Z,5.30
2023-03-24T01:34:53.502Z,4.90
2023-03-24T01:37:41.799Z,4.10
2023-03-24T01:40:29.742Z,4.50
2023-03-24T01:43:27.445Z,4.60
2023-03-24T01:46:19.443Z,4.50
2023-03-24T01:49:47.593Z,4.90
2023-03-24T01:53:15.633Z,4.80
2023-03-24T01:55:48.330Z,5.40
2023-03-24T01:58:33.137Z,4.90
2023-03-24T02:01:54.564Z,5.00
2023-03-24T02:04:48.587Z,5.10
2023-03-24T02:07:47.465Z,5.20
2023-03-24T02:10:49.684Z,5.60
2023-03-24T02:14:11.985Z,5.30
2023-03-24T02:17:23.490Z,5.70
2023-03-24T02:20:45.034Z,5.50
2023-03-24T02:24:03.784Z,5.60
2023-03-24T02:27:00.202Z,5.90
2023-03-24T02:29:57.689Z,6.00
2023-03-24T02:32:55.137Z,5.90
2023-03-24T02:36:03.323Z,5.40
2023-03-24T02:39:21.506Z,5.30
2023-03-24T02:42:34.234Z,5.00
2023-03-24T02:45:48.347Z,5.10
2023-03-24T02:49:04.703Z,5.20
2023-03-24T02:52:31.043Z,4.70
2023-03-24T02:55:06.384Z,5.30
2023-03-24T02:57:41.661Z,4.80
2023-03-24T03:00:39.942Z,5.20
2023-03-24T03:03:38.611Z,5.10
2023-03-24T03:06:15.893Z,5.00
2023-03-24T03:08:47.829Z,5.00
2023-03-24T03:11:18.042Z,4.70
2023-03-24T03:13:55.380Z,5.10
2023-03-24T03:16:34.700Z,5.20
2023-03-24T03:19:11.595Z,4.60
2023-03-24T03:21:44.052Z,4.40
2023-03-24T03:24:20.256Z,5.10
2023-03-24T03:26:49.120Z,4.80
2023-03-24T03:29:23.231Z,5.00
2023-03-24T03:32:00.877Z,4.20
2023-03-24T03:35:08.556Z,4.10
2023-03-24T03:38:08.523Z,4.10
2023-03-24T03:40:49.854Z,3.90
2023-03-24T03:43:19.863Z,3.90
2023-03-24T03:45:48.044Z,4.10
2023-03-24T03:48:17.401Z,3.80
2023-03-24T03:50:46.276Z,3.80
2023-03-24T03:53:18.609Z,4.70
2023-03-24T03:55:49.225Z,4.70
2023-03-24T03:58:18.294Z,5.20
2023-03-24T04:00:55.877Z,5.00
2023-03-24T04:04:13.647Z,5.20
2023-03-24T04:07:19.136Z,5.00
2023-03-24T04:10:03.803Z,5.10
2023-03-24T04:12:46.778Z,5.40
2023-03-24T04:15:55.654Z,5.60
2023-03-24T04:19:13.688Z,4.70
2023-03-24T04:22:48.666Z,4.50
2023-03-24T04:26:24.812Z,4.60
2023-03-24T04:30:01.686Z,4.70
2023-03-24T04:33:34.644Z,4.60
2023-03-24T04:37:09.731Z,3.70
2023-03-24T04:40:45.690Z,3.70
2023-03-24T04:44:14.726Z,4.00
2023-03-24T04:47:57.333Z,4.20
2023-03-24T04:51:26.353Z,4.80
2023-03-24T04:54:54.754Z,4.60
2023-03-24T04:58:30.676Z,4.60
2023-03-24T05:02:08.969Z,5.30
2023-03-24T05:06:13.997Z,4.80
2023-03-24T05:10:02.674Z,5.60
2023-03-24T05:13:32.718Z,4.40
2023-03-24T05:20:02.713Z,5.20
2023-03-24T05:23:35.640Z,8.20
2023-03-24T05:27:24.672Z,6.40
2023-03-24T05:31:03.682Z,6.60
2023-03-24T05:41:34.810Z,5.30
2023-03-24T05:45:14.678Z,5.20
2023-03-24T05:47:43.854Z,4.90
2023-03-24T05:50:11.854Z,5.40
2023-03-24T05:52:41.421Z,5.50
2023-03-24T05:55:25.506Z,5.90
2023-03-24T05:58:02.104Z,5.60
2023-03-24T06:00:38.328Z,5.30
2023-03-24T06:03:10.757Z,5.00
2023-03-24T06:05:45.826Z,5.50
2023-03-24T06:08:14.921Z,6.20
2023-03-24T06:10:43.632Z,5.50
2023-03-24T06:13:12.729Z,7.20
2023-03-24T06:15:43.365Z,6.20
2023-03-24T06:18:24.152Z,6.00
2023-03-24T06:20:56.618Z,6.50
2023-03-24T06:23:30.926Z,5.90
2023-03-24T06:26:11.694Z,6.10
2023-03-24T06:28:52.102Z,5.60
2023-03-24T06:31:21.709Z,5.60
2023-03-24T06:33:52.324Z,4.80
2023-03-24T06:36:20.708Z,4.80
2023-03-24T06:38:50.896Z,5.20
2023-03-24T06:41:23.205Z,4.70
2023-03-24T06:43:55.481Z,4.70
2023-03-24T06:46:24.385Z,5.10
2023-03-24T06:48:53.096Z,4.90
2023-03-24T06:51:22.111Z,5.60
2023-03-24T06:53:50.207Z,5.30
2023-03-24T06:56:21.015Z,4.90
2023-03-24T06:58:53.159Z,5.90
2023-03-24T07:01:30.600Z,5.50
2023-03-24T07:04:04.811Z,5.00
2023-03-24T07:07:25.863Z,4.30
2023-03-24T07:10:41.699Z,4.50
2023-03-24T07:13:23.219Z,4.80
2023-03-24T07:16:02.152Z,5.60
2023-03-24T07:18:58.763Z,4.80
2023-03-24T07:21:54.826Z,5.10
2023-03-24T07:24:42.646Z,3.80
2023-03-24T07:28:04.125Z,5.20
2023-03-24T07:30:57.494Z,4.60
2023-03-24T07:33:32.990Z,5.10
2023-03-24T07:36:01.829Z,4.50
2023-03-24T07:38:31.061Z,5.70
2023-03-24T07:41:08.141Z,5.20
2023-03-24T07:43:40.433Z,6.10
2023-03-24T07:46:25.562Z,5.10
2023-03-24T07:49:12.219Z,5.40
2023-03-24T07:51:48.632Z,5.50
2023-03-24T07:54:40.608Z,6.20
2023-03-24T07:57:11.214Z,7.10
2023-03-24T07:59:54.829Z,7.30
2023-03-24T08:02:52.406Z,7.20
2023-03-24T08:06:21.464Z,7.90
2023-03-24T08:08:50.719Z,7.50
2023-03-24T08:11:27.876Z,8.00
2023-03-24T08:14:08.799Z,7.30
2023-03-24T08:16:49.047Z,6.70
2023-03-24T08:19:23.263Z,6.80
2023-03-24T08:22:04.802Z,6.90
2023-03-24T08:24:36.410Z,6.60
2023-03-24T08:27:09.042Z,6.30
2023-03-24T08:29:39.859Z,6.40
2023-03-24T08:33:12.427Z,7.90
2023-03-24T08:35:39.016Z,7.10
2023-03-24T08:38:40.928Z,5.60
2023-03-24T08:41:13.301Z,5.80
2023-03-24T08:43:57.196Z,6.90
2023-03-24T08:46:25.958Z,8.00
2023-03-24T08:48:58.632Z,7.80
2023-03-24T08:51:35.579Z,10.70
2023-03-24T08:54:04.032Z,8.70
2023-03-24T08:56:35.315Z,11.00
2023-03-24T08:59:04.668Z,10.20
2023-03-24T09:01:35.579Z,9.70
2023-03-24T09:04:05.603Z,10.40
2023-03-24T09:06:35.842Z,9.50
2023-03-24T09:09:04.089Z,9.00
2023-03-24T09:11:35.443Z,9.20
2023-03-24T09:14:07.402Z,8.50
2023-03-24T09:16:38.949Z,8.90
2023-03-24T09:19:07.466Z,8.10
2023-03-24T09:21:36.083Z,7.60
2023-03-24T09:24:09.605Z,7.50
2023-03-24T09:26:42.716Z,8.10
2023-03-24T09:29:11.036Z,7.70
2023-03-24T09:31:39.152Z,8.20
2023-03-24T09:34:07.596Z,5.80
2023-03-24T09:36:35.907Z,5.00
2023-03-24T09:39:11.280Z,4.40
2023-03-24T09:41:39.542Z,3.70
2023-03-24T09:44:30.763Z,3.50
2023-03-24T09:47:10.350Z,3.60
2023-03-24T09:49:43.303Z,6.40
2023-03-24T09:52:14.444Z,5.20
2023-03-24T09:54:53.133Z,4.50
2023-03-24T09:57:40.299Z,4.50
2023-03-24T10:00:22.421Z,4.60
2023-03-24T10:02:57.001Z,4.70
2023-03-24T10:05:50.625Z,4.10
2023-03-24T10:08:40.112Z,3.50
2023-03-24T10:12:38.414Z,4.30
2023-03-24T10:15:37.760Z,4.40
2023-03-24T10:18:41.216Z,4.90
2023-03-24T10:21:29.598Z,4.70
2023-03-24T10:24:19.185Z,4.90
2023-03-24T10:27:02.088Z,4.60
2023-03-24T10:30:03.852Z,4.30
2023-03-24T10:32:37.326Z,4.50
2023-03-24T10:35:10.231Z,4.70
2023-03-24T10:37:41.433Z,4.70
2023-03-24T10:40:24.932Z,4.50
2023-03-24T10:43:06.999Z,4.40
2023-03-24T10:45:44.161Z,4.80
2023-03-24T10:48:33.856Z,4.90
2023-03-24T10:51:02.908Z,3.90
2023-03-24T10:53:31.463Z,4.70
2023-03-24T10:56:07.939Z,3.80
2023-03-24T10:58:39.685Z,3.60
2023-03-24T11:01:47.403Z,3.90
2023-03-24T11:28:24.939Z,3.40
2023-03-24T11:36:05.040Z,3.10
2023-03-24T11:39:38.210Z,3.00
2023-03-24T11:43:18.362Z,3.60
2023-03-24T12:13:22.136Z,3.00
2023-03-24T12:27:41.305Z,2.90
2023-03-24T12:32:19.179Z,3.10
2023-03-24T12:35:45.106Z,3.90
2023-03-24T12:42:42.057Z,3.30
2023-03-24T12:50:52.268Z,3.90
2023-03-24T12:57:52.692Z,2.80
2023-03-24T13:01:54.143Z,2.80
2023-03-24T13:05:05.313Z,3.30
2023-03-24T13:07:59.138Z,2.70
2023-03-24T13:14:33.658Z,2.90
2023-03-24T13:17:32.361Z,3.10
2023-03-24T13:32:13.974Z,3.00
2023-03-24T13:46:30.522Z,3.40
2023-03-24T13:53:48.456Z,3.70
2023-03-24T13:58:10.220Z,3.50
2023-03-24T14:08:47.449Z,3.10
2023-03-24T14:12:17.146Z,4.40
2023-03-24T14:19:18.969Z,2.60
2023-03-24T14:21:58.608Z,7.60
2023-03-24T14:24:29.854Z,4.00
2023-03-24T14:26:58.095Z,3.00
2023-03-24T14:30:05.171Z,2.50
2023-03-24T14:32:42.072Z,2.90
2023-03-24T14:35:46.821Z,2.90
2023-03-24T14:38:37.141Z,2.90
2023-03-24T14:41:09.248Z,2.50
2023-03-24T14:43:58.872Z,2.70
2023-03-24T14:46:37.063Z,2.80
2023-03-24T14:49:20.856Z,3.20
2023-03-24T14:52:05.968Z,2.50
2023-03-24T14:54:59.746Z,2.70
2023-03-24T14:57:31.626Z,3.00
2023-03-24T15:00:18.988Z,4.10
2023-03-24T15:02:51.494Z,3.40
2023-03-24T15:05:31.818Z,3.40
2023-03-24T15:08:13.083Z,3.00
2023-03-24T15:10:48.932Z,3.20
2023-03-24T15:13:31.592Z,4.20
2023-03-24T15:16:01.449Z,3.10
2023-03-24T15:18:29.752Z,3.10
2023-03-24T15:20:58.114Z,3.00
2023-03-24T15:23:28.565Z,2.80
2023-03-24T15:25:56.726Z,3.10
2023-03-24T15:28:28.696Z,3.40
2023-03-24T15:30:59.420Z,3.70
2023-03-24T15:33:31.218Z,3.30
2023-03-24T15:35:59.943Z,3.40
2023-03-24T15:38:31.664Z,3.10
2023-03-24T15:41:07.449Z,3.10
2023-03-24T15:43:45.893Z,3.80
2023-03-24T15:46:29.104Z,3.40
2023-03-24T15:48:59.670Z,3.60
2023-03-24T15:51:58.142Z,3.00
2023-03-24T15:54:32.484Z,3.90
2023-03-24T15:57:10.513Z,4.40
2023-03-24T15:59:44.381Z,4.60
2023-03-24T16:02:33.239Z,4.90
2023-03-24T16:07:35.620Z,4.00
2023-03-24T16:10:07.312Z,4.70
2023-03-24T16:12:36.875Z,4.70
2023-03-24T16:15:06.912Z,4.10
2023-03-24T16:17:34.902Z,3.80
2023-03-24T16:20:08.907Z,4.50
2023-03-24T16:22:37.103Z,4.20
2023-03-24T16:25:06.082Z,3.90
2023-03-24T16:27:34.443Z,4.80
2023-03-24T16:30:03.120Z,5.00
2023-03-24T16:32:31.106Z,5.00
2023-03-24T16:34:59.435Z,5.20
2023-03-24T16:37:27.420Z,5.60
2023-03-24T16:39:55.426Z,5.10
2023-03-24T16:42:24.621Z,4.60
2023-03-24T16:45:12.754Z,4.70
2023-03-24T16:47:41.243Z,5.00
2023-03-24T16:50:26.011Z,4.20
2023-03-24T16:52:54.919Z,4.50
2023-03-24T16:55:24.910Z,4.10
2023-03-24T16:57:53.141Z,4.10
2023-03-24T17:00:22.680Z,3.80
2023-03-24T17:02:53.706Z,3.80
2023-03-24T17:05:28.321Z,3.50
2023-03-24T17:07:57.581Z,3.60
2023-03-24T17:10:27.373Z,3.30
2023-03-24T17:12:56.769Z,3.80
2023-03-24T17:15:33.547Z,4.30
2023-03-24T17:18:03.939Z,4.40
2023-03-24T17:20:41.860Z,3.60
2023-03-24T17:23:13.033Z,4.50
2023-03-24T17:25:41.149Z,4.10
2023-03-24T17:28:14.858Z,4.20
2023-03-24T17:31:12.924Z,4.90
2023-03-24T17:33:56.963Z,4.40
2023-03-24T17:36:26.416Z,4.20
2023-03-24T17:38:55.913Z,4.60
2023-03-24T17:42:12.644Z,5.00
2023-03-24T17:44:40.642Z,5.80
2023-03-24T17:47:09.024Z,6.10
2023-03-24T17:49:59.693Z,4.40
2023-03-24T17:52:28.112Z,6.00
2023-03-24T17:55:11.484Z,5.10
2023-03-24T17:57:55.893Z,5.60
2023-03-24T18:00:24.452Z,6.50
2023-03-24T18:02:52.954Z,6.40
2023-03-24T18:05:43.561Z,6.20
2023-03-24T18:08:37.174Z,5.70
2023-03-24T18:11:47.909Z,6.80
2023-03-24T18:15:04.480Z,6.70
2023-03-24T18:18:20.677Z,7.30
2023-03-24T18:21:56.977Z,5.90
2023-03-24T18:25:03.035Z,6.10
2023-03-24T18:28:18.301Z,5.90
2023-03-24T18:31:08.257Z,6.00
2023-03-24T18:33:56.720Z,7.60
2023-03-24T18:36:59.707Z,6.60
2023-03-24T18:39:32.468Z,6.60
2023-03-24T18:43:00.647Z,6.00
2023-03-24T18:45:56.544Z,5.50
2023-03-24T18:49:08.418Z,4.50
2023-03-24T18:51:46.974Z,4.70
2023-03-24T18:54:56.153Z,4.30
2023-03-24T18:57:48.958Z,4.40
2023-03-24T19:00:37.413Z,4.80
2023-03-24T19:03:06.633Z,4.20
2023-03-24T19:05:34.740Z,4.70
2023-03-24T19:08:07.519Z,4.40
2023-03-24T19:10:36.859Z,4.90
2023-03-24T19:13:05.301Z,4.70
2023-03-24T19:15:36.915Z,4.40
2023-03-24T19:18:05.026Z,5.00
2023-03-24T19:20:35.205Z,4.70
2023-03-24T19:23:03.808Z,4.20
2023-03-24T19:25:31.813Z,4.30
2023-03-24T19:27:59.700Z,4.90
2023-03-24T19:30:27.575Z,4.70
2023-03-24T19:32:55.909Z,4.40
2023-03-24T19:35:23.919Z,4.70
2023-03-24T19:37:53.488Z,5.20
2023-03-24T19:40:22.072Z,5.10
2023-03-24T19:42:50.193Z,4.40
2023-03-24T19:45:19.680Z,4.20
2023-03-24T19:47:47.661Z,4.80
2023-03-24T19:50:17.560Z,4.20
2023-03-24T19:52:47.682Z,5.50
2023-03-24T19:55:16.029Z,5.10
2023-03-24T19:57:44.943Z,4.90
2023-03-24T20:00:14.669Z,5.90
2023-03-24T20:02:42.797Z,5.50
2023-03-24T20:05:11.210Z,5.70
2023-03-24T20:07:39.196Z,5.50
2023-03-24T20:10:07.827Z,4.40
2023-03-24T20:12:35.849Z,4.80
2023-03-24T20:15:04.624Z,4.50
2023-03-24T20:17:37.289Z,4.60
2023-03-24T20:20:07.550Z,4.80
2023-03-24T20:22:36.243Z,4.70
2023-03-24T20:25:04.861Z,5.70
2023-03-24T20:27:33.107Z,5.20
2023-03-24T20:30:01.150Z,6.00
2023-03-24T20:32:29.158Z,5.20
2023-03-24T20:34:57.080Z,4.70
2023-03-24T20:37:25.587Z,5.00
2023-03-24T20:39:53.443Z,5.60
2023-03-24T20:42:24.223Z,4.90
2023-03-24T20:44:52.191Z,5.20
2023-03-24T20:47:20.618Z,5.10
2023-03-24T20:49:48.696Z,5.90
2023-03-24T20:52:17.167Z,5.00
2023-03-24T20:54:45.582Z,5.40
2023-03-24T20:57:13.589Z,4.40
2023-03-24T20:59:41.798Z,4.20
2023-03-24T21:02:12.067Z,4.60
2023-03-24T21:04:40.172Z,5.00
2023-03-24T21:07:08.074Z,5.50
2023-03-24T21:09:36.250Z,5.30
2023-03-24T21:12:06.592Z,6.00
2023-03-24T21:14:34.655Z,6.20
2023-03-24T21:17:02.707Z,5.70
2023-03-24T21:19:30.719Z,5.80
2023-03-24T21:21:59.298Z,6.20
2023-03-24T21:24:27.261Z,6.20
2023-03-24T21:26:57.159Z,6.30
2023-03-24T21:29:26.584Z,6.90
2023-03-24T21:31:54.466Z,6.20
2023-03-24T21:34:22.437Z,6.80
2023-03-24T21:36:53.553Z,5.80
2023-03-24T21:39:21.823Z,6.10
2023-03-24T21:41:49.809Z,6.20
2023-03-24T21:44:19.017Z,6.50
2023-03-24T21:46:48.020Z,6.40
2023-03-24T21:49:18.836Z,6.10
2023-03-24T21:51:47.641Z,5.60
2023-03-24T21:54:15.582Z,6.20
2023-03-24T21:57:10.564Z,5.60
2023-03-24T22:00:40.415Z,5.40
2023-03-24T22:03:55.069Z,5.50
2023-03-24T22:07:06.954Z,5.00
2023-03-24T22:10:16.435Z,5.30
2023-03-24T22:13:26.033Z,6.80
2023-03-24T22:17:00.995Z,6.50
2023-03-24T22:20:11.328Z,6.30
2023-03-24T22:23:40.138Z,5.20
2023-03-24T22:26:44.264Z,5.30
2023-03-24T22:30:15.474Z,5.40
2023-03-24T22:33:27.065Z,5.40
2023-03-24T22:36:22.775Z,5.10
2023-03-24T22:40:10.220Z,4.90
2023-03-24T22:43:18.965Z,4.60
2023-03-24T22:46:59.273Z,4.70
2023-03-24T22:50:09.579Z,5.30
2023-03-24T22:53:06.442Z,5.50
2023-03-24T22:56:14.182Z,6.40
2023-03-24T22:59:02.475Z,5.20
2023-03-24T23:02:28.184Z,5.10
2023-03-24T23:05:41.948Z,5.10
2023-03-24T23:08:54.994Z,4.80
2023-03-24T23:12:25.194Z,5.50
2023-03-24T23:15:38.795Z,5.10
2023-03-24T23:18:37.411Z,4.90
2023-03-24T23:21:27.124Z,4.80
2023-03-24T23:24:39.734Z,5.20
2023-03-24T23:27:47.892Z,4.60
2023-03-24T23:30:58.357Z,4.40
2023-03-24T23:34:22.451Z,4.30
2023-03-24T23:37:12.586Z,4.60
2023-03-24T23:40:04.048Z,4.80
2023-03-24T23:42:52.298Z,4.30
2023-03-24T23:45:40.363Z,4.70
2023-03-24T23:48:50.050Z,5.10
2023-03-24T23:51:57.948Z,4.90
2023-03-24T23:54:54.332Z,4.30
2023-03-24T23:57:44.588Z,5.30
